Time;durP1;ratioP1;P1;durP2;ratioP2;P2;SDS_P1;SDS_P2;PMS_P1;PMS_P2;Temp;Humidity;BMP_temperature;BMP_pressure;BME280_temperature;BME280_humidity;BME280_pressure;Samples;Min_cycle;Max_cycle;Signal;HPM_P1;HPM_P2
2022/04/05 00:01:00;;;;;;;13.53;7.23;;;;;;;2.04;66.92;93555.25;5029919;28;20045;-53
2022/04/05 00:03:27;;;;;;;16.17;7.57;;;;;;;2.05;66.82;93554.09;5031934;28;20049;-49
2022/04/05 00:05:53;;;;;;;15.60;7.70;;;;;;;2.17;66.59;93547.66;5031275;28;20041;-49
2022/04/05 00:08:20;;;;;;;13.70;7.07;;;;;;;2.02;66.68;93551.38;5031432;28;20508;-47
2022/04/05 00:10:47;;;;;;;12.15;6.80;;;;;;;2.14;66.48;93543.75;5031476;28;20041;-54
2022/04/05 00:13:14;;;;;;;13.60;7.07;;;;;;;2.30;66.01;93540.84;5030699;28;20110;-48
2022/04/05 00:15:40;;;;;;;13.38;7.10;;;;;;;2.16;66.43;93535.28;5031456;28;20556;-47
2022/04/05 00:18:07;;;;;;;13.27;7.47;;;;;;;2.15;66.96;93539.91;5019641;28;20046;-52
2022/04/05 00:20:34;;;;;;;14.00;7.00;;;;;;;2.15;67.27;93539.91;5030085;28;20045;-46
2022/04/05 00:23:01;;;;;;;18.55;9.40;;;;;;;2.33;67.00;93531.19;5030951;28;20045;-48
2022/04/05 00:25:28;;;;;;;15.80;7.37;;;;;;;2.23;66.50;93532.63;5030106;28;20052;-50
2022/04/05 00:27:55;;;;;;;14.23;7.00;;;;;;;2.09;67.15;93533.25;5030834;28;20045;-47
2022/04/05 00:30:22;;;;;;;15.55;7.50;;;;;;;2.02;67.75;93527.03;5031171;28;20052;-46
2022/04/05 00:32:49;;;;;;;16.88;7.45;;;;;;;2.11;67.62;93530.19;5029305;28;20494;-49
2022/04/05 00:35:16;;;;;;;14.18;7.25;;;;;;;2.11;67.38;93516.66;5029833;28;20052;-46
2022/04/05 00:37:43;;;;;;;14.47;7.90;;;;;;;2.11;67.94;93525.56;5031126;28;20047;-46
2022/04/05 00:40:10;;;;;;;11.75;6.93;;;;;;;2.17;67.60;93513.25;5030540;28;20045;-47
2022/04/05 00:42:36;;;;;;;14.10;7.32;;;;;;;2.18;67.42;93522.94;5030783;28;20046;-51
2022/04/05 00:45:05;;;;;;;20.38;7.28;;;;;;;2.15;67.96;93523.69;5030377;28;20053;-52
2022/04/05 00:47:32;;;;;;;14.30;7.10;;;;;;;2.02;68.53;93529.72;5030269;28;20441;-47
2022/04/05 00:49:59;;;;;;;13.57;7.27;;;;;;;1.90;68.98;93528.81;5030511;28;20050;-51
2022/04/05 00:52:27;;;;;;;11.82;7.05;;;;;;;2.00;68.67;93530.84;5030794;28;20068;-45
2022/04/05 00:54:56;;;;;;;13.32;6.85;;;;;;;2.03;68.86;93525.84;5030275;28;20049;-47
2022/04/05 00:57:23;;;;;;;15.23;6.90;;;;;;;1.90;69.47;93517.22;5030735;28;20042;-45
2022/04/05 00:59:55;;;;;;;19.70;7.68;;;;;;;1.90;69.50;93515.28;5030042;28;20045;-45
2022/04/05 01:02:25;;;;;;;24.80;8.17;;;;;;;1.76;69.67;93518.59;5029473;28;20392;-51
2022/04/05 01:04:52;;;;;;;13.05;7.10;;;;;;;1.78;69.67;93518.25;5030283;28;20056;-53
2022/04/05 01:07:22;;;;;;;16.45;7.78;;;;;;;1.92;69.34;93514.91;5030457;28;20068;-49
2022/04/05 01:09:54;;;;;;;14.13;7.82;;;;;;;1.95;69.50;93514.97;5030307;28;20049;-48
2022/04/05 01:12:21;;;;;;;13.68;7.13;;;;;;;1.94;69.03;93504.50;5030322;28;20049;-51
2022/04/05 01:14:49;;;;;;;14.00;7.30;;;;;;;1.90;69.84;93509.09;5030372;28;20054;-48
2022/04/05 01:17:16;;;;;;;13.50;7.00;;;;;;;2.03;69.08;93509.63;5029665;28;20352;-48
2022/04/05 01:19:44;;;;;;;16.45;8.07;;;;;;;1.88;69.40;93503.28;5030463;28;20498;-51
2022/04/05 01:22:11;;;;;;;14.35;7.28;;;;;;;1.91;69.43;93506.03;5029847;28;20049;-49
2022/04/05 01:24:37;;;;;;;14.98;7.22;;;;;;;1.92;69.42;93494.03;5030463;28;20055;-45
2022/04/05 01:27:06;;;;;;;15.70;7.90;;;;;;;2.03;69.14;93494.16;5012301;28;20079;-45
2022/04/05 01:29:34;;;;;;;16.38;7.82;;;;;;;2.14;68.85;93486.16;5029079;28;20051;-46
2022/04/05 01:32:04;;;;;;;15.95;7.80;;;;;;;2.15;68.50;93490.41;5028584;28;20061;-45
2022/04/05 01:34:34;;;;;;;14.98;8.23;;;;;;;2.12;68.42;93489.22;5030282;28;20054;-46
2022/04/05 01:37:10;;;;;;;12.15;6.78;;;;;;;2.02;68.60;93479.06;5029601;28;20406;-55
2022/04/05 01:39:40;;;;;;;13.00;7.40;;;;;;;2.00;69.12;93489.50;5029006;28;20049;-47
2022/04/05 01:42:14;;;;;;;15.95;8.20;;;;;;;1.97;68.60;93491.03;5028513;28;20049;-50
2022/04/05 01:44:42;;;;;;;14.82;7.90;;;;;;;1.94;69.00;93486.34;5030144;28;20049;-48
2022/04/05 01:47:11;;;;;;;13.88;8.10;;;;;;;1.95;68.99;93482.50;5028342;28;20115;-50
2022/04/05 01:49:40;;;;;;;16.10;8.10;;;;;;;2.02;68.74;93475.59;5030249;28;20041;-48
2022/04/05 01:52:09;;;;;;;18.33;9.77;;;;;;;1.93;68.89;93467.75;5027034;28;20053;-45
2022/04/05 01:54:37;;;;;;;15.27;8.23;;;;;;;2.00;68.55;93478.66;5016260;28;20521;-45
2022/04/05 01:57:05;;;;;;;20.98;8.40;;;;;;;2.02;68.52;93470.19;5009827;28;20053;-46
2022/04/05 01:59:35;;;;;;;14.43;7.90;;;;;;;1.97;68.41;93469.38;5012984;28;20054;-46
2022/04/05 02:02:06;;;;;;;17.67;8.80;;;;;;;2.06;68.08;93468.28;5013682;28;20046;-49
2022/04/05 02:04:33;;;;;;;14.80;8.13;;;;;;;1.98;68.72;93462.78;5014132;28;20048;-47
2022/04/05 02:07:00;;;;;;;20.67;8.50;;;;;;;1.98;67.87;93465.50;5021633;28;20047;-52
2022/04/05 02:09:27;;;;;;;14.65;7.90;;;;;;;1.86;68.73;93465.75;5033875;28;20041;-46
2022/04/05 02:11:54;;;;;;;15.63;8.23;;;;;;;1.94;68.45;93455.81;5033184;28;20050;-49
2022/04/05 02:14:21;;;;;;;13.70;8.40;;;;;;;1.90;68.54;93453.06;5033869;28;20047;-52
2022/04/05 02:16:47;;;;;;;17.10;8.10;;;;;;;1.87;69.00;93456.50;5033731;28;20048;-50
2022/04/05 02:19:14;;;;;;;17.15;8.38;;;;;;;1.85;69.00;93450.69;5032419;28;20926;-55
2022/04/05 02:21:41;;;;;;;13.65;8.07;;;;;;;1.89;68.77;93454.22;5033657;28;20041;-47
2022/04/05 02:24:07;;;;;;;13.77;7.90;;;;;;;1.84;68.58;93446.41;5033017;28;20383;-52
2022/04/05 02:26:34;;;;;;;15.50;7.80;;;;;;;1.93;68.66;93449.63;5033382;28;21080;-54
2022/04/05 02:29:00;;;;;;;14.38;7.80;;;;;;;1.84;68.92;93442.94;5033014;28;20045;-49
2022/04/05 02:31:28;;;;;;;15.50;8.82;;;;;;;1.87;69.28;93444.88;5033423;28;20046;-50
2022/04/05 02:33:55;;;;;;;15.95;8.65;;;;;;;1.85;68.75;93442.59;5032828;28;20045;-45
2022/04/05 02:36:22;;;;;;;17.35;7.95;;;;;;;1.86;69.04;93452.25;5033251;28;20495;-49
2022/04/05 02:38:48;;;;;;;18.87;8.70;;;;;;;1.87;68.85;93461.94;5033375;28;20053;-46
2022/04/05 02:41:15;;;;;;;16.05;8.55;;;;;;;1.98;68.03;93454.69;5032228;28;20317;-46
2022/04/05 02:43:42;;;;;;;14.70;8.40;;;;;;;1.99;68.09;93466.28;5033448;28;20059;-48
2022/04/05 02:46:11;;;;;;;18.38;8.43;;;;;;;1.88;68.48;93466.19;5032573;28;20071;-47
2022/04/05 02:48:43;;;;;;;16.95;8.23;;;;;;;1.94;68.27;93458.50;5033097;28;20092;-51
2022/04/05 02:51:14;;;;;;;15.03;7.90;;;;;;;2.05;67.56;93453.94;5028342;28;20049;-52
2022/04/05 02:53:42;;;;;;;16.23;8.10;;;;;;;2.00;67.73;93474.03;5016530;28;20049;-48
2022/04/05 02:56:09;;;;;;;17.30;8.93;;;;;;;2.02;67.69;93462.84;5064197;28;20393;-45
2022/04/05 02:58:37;;;;;;;17.23;8.13;;;;;;;2.07;67.18;93461.72;5032832;28;20060;-47
2022/04/05 03:01:04;;;;;;;14.95;7.82;;;;;;;2.06;67.04;93466.34;5032262;28;20049;-49
2022/04/05 03:03:32;;;;;;;14.13;7.93;;;;;;;1.92;67.64;93467.00;5032722;28;20046;-48
2022/04/05 03:06:00;;;;;;;15.40;7.90;;;;;;;1.93;67.92;93456.94;5032174;28;20652;-51
2022/04/05 03:08:27;;;;;;;18.15;8.05;;;;;;;1.98;68.04;93453.91;5028313;28;20038;-51
2022/04/05 03:10:53;;;;;;;14.32;8.00;;;;;;;1.98;67.33;93448.50;5031510;28;20054;-46
2022/04/05 03:13:21;;;;;;;15.68;8.80;;;;;;;1.97;67.44;93449.63;5032624;28;20509;-48
2022/04/05 03:15:48;;;;;;;16.23;8.00;;;;;;;2.12;67.08;93453.25;5032672;28;20045;-50
2022/04/05 03:18:14;;;;;;;16.35;7.90;;;;;;;2.05;66.89;93443.13;5031409;28;21640;-49
2022/04/05 03:20:41;;;;;;;18.10;8.90;;;;;;;2.14;67.00;93453.66;5032529;28;20041;-50
2022/04/05 03:23:08;;;;;;;17.42;8.32;;;;;;;2.22;66.25;93449.88;5031503;28;20060;-54
2022/04/05 03:25:35;;;;;;;16.33;8.07;;;;;;;2.14;66.19;93440.91;5014788;28;20076;-50
2022/04/05 03:28:03;;;;;;;13.57;7.83;;;;;;;2.21;66.54;93440.19;5031533;28;20486;-45
2022/04/05 03:30:31;;;;;;;13.85;8.05;;;;;;;2.26;66.35;93441.78;5032298;28;20042;-47
2022/04/05 03:32:58;;;;;;;16.48;8.00;;;;;;;2.24;66.08;93433.25;5031751;28;20411;-49
2022/04/05 03:35:25;;;;;;;21.20;8.02;;;;;;;2.24;65.56;93428.63;5032212;28;20041;-46
2022/04/05 03:37:52;;;;;;;15.27;8.30;;;;;;;2.07;65.54;93430.00;5031684;28;20117;-48
2022/04/05 03:40:19;;;;;;;13.57;7.47;;;;;;;2.06;65.44;93433.88;5032088;28;20045;-48
2022/04/05 03:42:46;;;;;;;15.82;7.72;;;;;;;2.00;65.86;93441.53;5030697;28;20045;-53
2022/04/05 03:45:12;;;;;;;16.10;8.38;;;;;;;2.04;65.92;93433.47;5031607;28;20095;-46
2022/04/05 03:47:39;;;;;;;15.35;8.45;;;;;;;2.07;65.56;93421.88;5032053;28;20059;-46
2022/04/05 03:50:06;;;;;;;13.38;7.55;;;;;;;2.01;65.28;93426.09;5031123;28;20099;-51
2022/04/05 03:52:33;;;;;;;15.27;7.80;;;;;;;1.98;65.87;93416.78;5019187;28;20050;-45
2022/04/05 03:55:00;;;;;;;14.05;8.15;;;;;;;1.94;65.65;93415.97;5028056;28;20046;-52
2022/04/05 03:57:27;;;;;;;15.18;7.97;;;;;;;2.05;65.21;93420.72;5031604;28;20058;-46
2022/04/05 03:59:53;;;;;;;14.52;7.60;;;;;;;2.03;65.55;93423.00;5031292;28;20050;-46
2022/04/05 04:02:20;;;;;;;13.02;8.02;;;;;;;2.03;65.57;93414.88;5031448;28;20041;-48
2022/04/05 04:04:50;;;;;;;13.73;7.40;;;;;;;2.04;65.47;93419.16;5031035;28;20050;-47
2022/04/05 04:07:16;;;;;;;18.38;8.15;;;;;;;2.17;65.42;93420.41;5031166;28;20494;-48
2022/04/05 04:09:44;;;;;;;14.25;7.82;;;;;;;2.19;64.86;93412.69;5031197;28;20115;-54
2022/04/05 04:12:10;;;;;;;15.63;8.20;;;;;;;2.15;65.25;93417.31;5031062;28;20045;-48
2022/04/05 04:14:37;;;;;;;13.73;7.68;;;;;;;2.22;65.25;93417.38;5031517;28;20059;-47
2022/04/05 04:17:04;;;;;;;12.50;7.13;;;;;;;2.20;65.12;93420.47;5030915;28;20059;-47
2022/04/05 04:19:31;;;;;;;14.45;7.30;;;;;;;2.10;65.56;93413.03;5030939;28;20052;-47
2022/04/05 04:21:58;;;;;;;14.45;7.93;;;;;;;2.02;65.75;93407.94;4995896;28;20057;-49
2022/04/05 04:24:25;;;;;;;14.38;7.80;;;;;;;2.15;65.95;93417.31;5031081;28;20049;-46
2022/04/05 04:26:51;;;;;;;14.07;7.90;;;;;;;2.11;65.61;93411.88;5030449;28;20045;-51
2022/04/05 04:29:19;;;;;;;12.80;7.60;;;;;;;2.10;66.06;93420.38;5030982;28;20049;-49
2022/04/05 04:31:46;;;;;;;13.23;7.95;;;;;;;2.04;66.80;93413.75;5031255;28;20052;-51
2022/04/05 04:34:13;;;;;;;15.00;8.02;;;;;;;2.08;67.01;93415.31;5030563;28;20037;-46
2022/04/05 04:36:40;;;;;;;16.30;9.55;;;;;;;2.14;67.50;93421.19;5030780;28;20049;-48
2022/04/05 04:39:07;;;;;;;20.40;9.60;;;;;;;2.27;67.30;93422.44;5030281;28;20053;-46
2022/04/05 04:41:34;;;;;;;16.67;7.87;;;;;;;2.08;67.96;93419.97;5030964;28;20053;-51
2022/04/05 04:44:01;;;;;;;16.20;8.48;;;;;;;1.86;69.34;93411.66;5030424;28;20037;-48
2022/04/05 04:46:28;;;;;;;16.90;8.85;;;;;;;1.77;69.94;93408.47;5030584;28;20073;-48
2022/04/05 04:48:54;;;;;;;13.70;7.57;;;;;;;1.59;70.57;93419.91;5028824;28;20540;-47
2022/04/05 04:51:21;;;;;;;15.32;8.02;;;;;;;1.46;71.17;93413.19;5022908;28;20054;-48
2022/04/05 04:53:48;;;;;;;21.90;8.43;;;;;;;1.53;71.20;93417.88;5017418;28;20057;-50
2022/04/05 04:56:14;;;;;;;16.13;8.13;;;;;;;1.48;71.59;93416.28;5044725;28;21732;-51
2022/04/05 04:58:41;;;;;;;17.17;8.77;;;;;;;1.54;71.69;93412.09;5030521;28;20053;-47
2022/04/05 05:01:08;;;;;;;16.08;8.15;;;;;;;1.68;71.00;93419.59;5029947;28;20051;-46
2022/04/05 05:03:35;;;;;;;15.18;8.70;;;;;;;1.55;71.39;93421.00;5030398;28;20049;-46
2022/04/05 05:06:03;;;;;;;16.07;8.83;;;;;;;1.65;71.01;93417.66;5029961;28;20049;-48
2022/04/05 05:08:31;;;;;;;14.73;8.38;;;;;;;1.59;71.69;93421.84;5030159;28;20053;-51
2022/04/05 05:10:57;;;;;;;18.90;9.05;;;;;;;1.67;71.72;93419.97;5029796;28;20049;-52
2022/04/05 05:13:25;;;;;;;17.83;8.93;;;;;;;1.73;71.43;93419.28;5029046;28;20045;-48
2022/04/05 05:15:52;;;;;;;18.55;9.95;;;;;;;1.80;71.09;93413.91;5030045;28;20065;-52
2022/04/05 05:18:20;;;;;;;21.33;9.10;;;;;;;1.84;71.46;93413.97;5028699;28;20494;-47
2022/04/05 05:20:47;;;;;;;18.02;9.00;;;;;;;1.81;70.71;93411.97;5030428;28;20491;-45
2022/04/05 05:23:13;;;;;;;18.63;9.60;;;;;;;1.83;70.98;93411.63;5029600;28;20038;-45
2022/04/05 05:25:40;;;;;;;13.90;7.55;;;;;;;1.90;70.50;93415.16;5030110;28;20049;-49
2022/04/05 05:28:07;;;;;;;17.10;8.13;;;;;;;1.83;70.86;93406.19;5029546;28;20041;-47
2022/04/05 05:30:34;;;;;;;16.07;8.60;;;;;;;1.81;70.62;93403.88;5030215;28;20060;-53
2022/04/05 05:33:01;;;;;;;15.23;8.30;;;;;;;1.88;70.79;93412.06;5030031;28;20057;-46
2022/04/05 05:35:28;;;;;;;17.48;9.18;;;;;;;1.91;70.84;93414.03;5036369;28;20049;-50
2022/04/05 05:37:56;;;;;;;18.85;9.27;;;;;;;1.96;70.26;93415.63;5035971;28;20041;-47
2022/04/05 05:40:23;;;;;;;18.65;10.38;;;;;;;1.96;70.40;93415.63;5035151;28;20075;-51
2022/04/05 05:42:52;;;;;;;18.80;8.40;;;;;;;2.03;70.17;93415.66;5036176;28;20037;-53
2022/04/05 05:45:20;;;;;;;16.42;9.10;;;;;;;1.91;70.18;93416.75;5035261;28;20410;-47
2022/04/05 05:47:47;;;;;;;17.92;8.25;;;;;;;1.89;70.65;93413.63;5035392;28;20037;-46
2022/04/05 05:50:14;;;;;;;17.55;9.20;;;;;;;1.98;70.60;93421.44;5018541;28;20037;-50
2022/04/05 05:52:42;;;;;;;17.23;8.88;;;;;;;2.07;70.37;93415.69;5036519;28;20406;-53
2022/04/05 05:55:10;;;;;;;17.37;9.00;;;;;;;2.10;69.88;93409.56;5036164;28;20051;-48
2022/04/05 05:57:38;;;;;;;21.10;8.82;;;;;;;2.19;69.89;93427.03;5036506;28;20049;-47
2022/04/05 06:00:07;;;;;;;16.58;9.02;;;;;;;2.37;69.58;93424.47;5034413;28;20041;-48
2022/04/05 06:02:38;;;;;;;19.90;8.50;;;;;;;2.27;69.63;93416.25;5036303;28;20045;-46
2022/04/05 06:05:06;;;;;;;15.73;8.13;;;;;;;2.20;69.48;93425.88;5033507;28;20049;-48
2022/04/05 06:07:39;;;;;;;14.27;8.30;;;;;;;2.09;69.80;93426.94;5029857;28;20048;-48
2022/04/05 06:10:09;;;;;;;18.65;8.90;;;;;;;2.25;69.79;93424.75;5036030;28;20051;-46
2022/04/05 06:12:38;;;;;;;16.75;8.27;;;;;;;2.27;69.80;93427.06;5036368;28;20045;-47
2022/04/05 06:15:10;;;;;;;14.68;7.95;;;;;;;2.35;69.62;93424.03;5036146;28;20048;-48
2022/04/05 06:17:38;;;;;;;20.02;8.30;;;;;;;2.37;69.91;93432.59;5036402;28;20056;-47
2022/04/05 06:20:06;;;;;;;18.57;8.40;;;;;;;2.34;69.71;93429.84;5036010;28;20042;-48
2022/04/05 06:22:40;;;;;;;16.40;7.45;;;;;;;2.40;69.16;93437.25;5036376;28;20120;-49
2022/04/05 06:25:08;;;;;;;19.25;8.23;;;;;;;2.37;69.80;93421.78;5035750;28;20049;-46
2022/04/05 06:27:36;;;;;;;17.63;7.97;;;;;;;2.50;69.40;93422.25;5035908;28;20048;-46
2022/04/05 06:30:05;;;;;;;19.58;8.35;;;;;;;2.49;69.47;93420.66;5035705;28;20045;-46
2022/04/05 06:32:32;;;;;;;14.70;7.90;;;;;;;2.56;69.27;93415.31;5035823;28;20041;-50
2022/04/05 06:34:59;;;;;;;16.33;7.95;;;;;;;2.53;69.04;93418.00;5035621;28;20050;-49
2022/04/05 06:37:26;;;;;;;16.77;7.97;;;;;;;2.57;69.20;93429.63;5034874;28;20060;-51
2022/04/05 06:39:52;;;;;;;16.83;7.68;;;;;;;2.68;68.90;93433.19;5035535;28;20048;-55
2022/04/05 06:42:19;;;;;;;17.20;8.38;;;;;;;2.66;68.88;93424.66;5034616;28;20047;-52
2022/04/05 06:44:46;;;;;;;15.20;7.97;;;;;;;2.64;69.51;93435.09;5034260;28;20041;-46
2022/04/05 06:47:13;;;;;;;19.23;8.57;;;;;;;2.72;68.86;93431.28;5032460;28;20642;-46
2022/04/05 06:49:40;;;;;;;19.17;8.70;;;;;;;2.69;68.93;93442.88;5032963;28;20042;-47
2022/04/05 06:52:07;;;;;;;15.90;8.25;;;;;;;2.80;69.23;93440.25;5030498;28;20056;-52
2022/04/05 06:54:33;;;;;;;17.40;8.20;;;;;;;2.80;69.49;93442.97;5032599;28;20057;-48
2022/04/05 06:57:00;;;;;;;15.70;8.60;;;;;;;2.76;69.18;93434.03;5032340;28;20054;-51
2022/04/05 06:59:27;;;;;;;16.65;7.88;;;;;;;2.88;69.21;93436.41;5032434;28;20513;-46
2022/04/05 07:01:54;;;;;;;17.45;8.23;;;;;;;2.82;69.90;93443.34;5031079;28;20056;-49
2022/04/05 07:04:20;;;;;;;14.02;7.63;;;;;;;2.95;69.72;93435.69;5032573;28;20051;-55
2022/04/05 07:06:47;;;;;;;16.00;8.55;;;;;;;2.89;69.53;93435.25;5031789;28;20049;-50
2022/04/05 07:09:14;;;;;;;13.93;7.53;;;;;;;3.04;69.17;93440.75;5031239;28;20041;-47
2022/04/05 07:11:41;;;;;;;16.40;8.15;;;;;;;2.96;69.58;93429.88;5030460;28;20056;-47
2022/04/05 07:14:08;;;;;;;16.73;7.82;;;;;;;3.03;69.64;93431.06;5030425;28;20383;-47
2022/04/05 07:16:34;;;;;;;13.68;7.88;;;;;;;3.11;68.85;93435.38;5031317;28;20041;-48
2022/04/05 07:19:01;;;;;;;14.60;8.02;;;;;;;3.10;68.98;93431.09;5029795;28;20062;-48
2022/04/05 07:21:28;;;;;;;17.67;8.30;;;;;;;3.37;68.33;93437.06;5030916;28;20045;-49
2022/04/05 07:23:58;;;;;;;13.48;7.90;;;;;;;3.83;67.50;93431.00;5031539;28;20045;-52
2022/04/05 07:26:25;;;;;;;14.55;8.10;;;;;;;4.04;66.29;93432.19;5030484;28;20045;-52
2022/04/05 07:28:52;;;;;;;14.70;8.20;;;;;;;4.09;66.67;93438.03;5030966;28;20103;-54
2022/04/05 07:31:24;;;;;;;13.65;8.07;;;;;;;3.68;67.58;93440.25;5031494;28;20045;-49
2022/04/05 07:33:51;;;;;;;17.90;8.20;;;;;;;3.94;67.41;93439.94;5063063;28;20115;-54
2022/04/05 07:36:18;;;;;;;22.40;8.10;;;;;;;4.04;66.65;93435.69;5031759;28;20490;-49
2022/04/05 07:38:44;;;;;;;14.07;8.20;;;;;;;4.06;67.20;93430.63;5031007;28;20049;-49
2022/04/05 07:41:11;;;;;;;14.05;8.05;;;;;;;4.11;67.21;93429.50;5031202;28;20047;-50
2022/04/05 07:43:38;;;;;;;15.75;8.50;;;;;;;3.96;66.61;93429.47;5031100;28;20041;-52
2022/04/05 07:46:05;;;;;;;17.77;8.40;;;;;;;4.07;66.38;93428.72;5062960;28;20053;-49
2022/04/05 07:48:31;;;;;;;13.32;7.78;;;;;;;4.02;66.83;93423.66;5031038;28;20041;-54
2022/04/05 07:51:00;;;;;;;16.60;8.45;;;;;;;4.04;66.24;93432.19;5030987;28;20042;-48
2022/04/05 07:53:26;;;;;;;14.98;8.88;;;;;;;4.03;67.40;93428.72;5062773;28;20041;-58
2022/04/05 07:55:56;;;;;;;17.02;9.45;;;;;;;4.09;67.34;93423.69;5030906;28;20072;-49
2022/04/05 07:58:24;;;;;;;14.40;8.37;;;;;;;4.19;66.11;93425.63;5063020;28;20050;-46
2022/04/05 08:00:51;;;;;;;13.93;8.00;;;;;;;4.42;65.63;93419.81;5062465;28;20041;-48
2022/04/05 08:03:18;;;;;;;13.98;7.70;;;;;;;4.68;64.33;93434.16;5031238;28;20060;-48
2022/04/05 08:05:46;;;;;;;12.60;7.93;;;;;;;4.79;63.85;93422.13;5031208;28;20053;-54
2022/04/05 08:08:12;;;;;;;12.95;7.53;;;;;;;4.74;63.65;93427.16;5030872;28;20050;-54
2022/04/05 08:11:00;;;;;;;13.70;7.57;;;;;;;4.43;65.63;93417.84;5030635;28;20075;-53
2022/04/05 08:13:27;;;;;;;14.65;7.45;;;;;;;4.81;64.39;93427.19;5030955;28;20457;-55
2022/04/05 08:15:55;;;;;;;13.50;7.80;;;;;;;5.05;62.95;93431.00;5030832;28;20041;-47
2022/04/05 08:18:22;;;;;;;13.00;7.40;;;;;;;5.20;62.34;93424.34;5027855;28;20406;-56
2022/04/05 08:20:49;;;;;;;14.65;7.82;;;;;;;5.74;61.36;93431.56;5031434;28;20037;-50
2022/04/05 08:23:16;;;;;;;12.17;7.37;;;;;;;5.38;61.57;93437.13;5029687;28;20850;-50
2022/04/05 08:25:43;;;;;;;13.05;7.10;;;;;;;5.68;61.06;93424.97;5030305;28;20094;-48
2022/04/05 08:28:10;;;;;;;11.60;7.03;;;;;;;5.68;60.52;93433.91;5029896;28;20049;-50
2022/04/05 08:30:36;;;;;;;12.57;6.85;;;;;;;5.55;61.10;93430.06;5030474;28;20106;-49
2022/04/05 08:33:03;;;;;;;11.55;6.68;;;;;;;5.68;60.30;93422.25;5030044;28;20056;-50
2022/04/05 08:35:30;;;;;;;15.53;6.93;;;;;;;6.02;59.61;93432.56;5029930;28;20049;-49
2022/04/05 08:37:57;;;;;;;11.55;6.50;;;;;;;6.30;58.14;93431.63;5030018;28;20450;-47
2022/04/05 08:40:25;;;;;;;11.90;6.82;;;;;;;6.35;57.85;93426.53;5030371;28;20041;-48
2022/04/05 08:42:55;;;;;;;11.90;6.57;;;;;;;5.99;58.71;93434.94;5029721;28;20055;-49
2022/04/05 08:45:24;;;;;;;12.30;6.53;;;;;;;6.40;57.53;93431.56;5030287;28;20048;-48
2022/04/05 08:47:53;;;;;;;11.67;6.43;;;;;;;6.19;58.59;93437.91;5029598;28;20053;-48
2022/04/05 08:50:23;;;;;;;13.20;6.70;;;;;;;6.36;57.98;93430.06;5030549;28;20422;-47
2022/04/05 08:52:51;;;;;;;12.57;6.57;;;;;;;6.21;58.02;93437.53;5029504;28;20428;-46
2022/04/05 08:55:18;;;;;;;12.73;6.65;;;;;;;6.51;57.69;93427.97;5029201;28;20387;-47
2022/04/05 08:57:45;;;;;;;10.85;6.00;;;;;;;6.50;57.83;93435.38;5030050;28;20041;-51
2022/04/05 09:00:19;;;;;;;10.93;6.27;;;;;;;6.55;57.66;93437.69;5029817;28;20041;-49
2022/04/05 09:02:58;;;;;;;10.98;5.90;;;;;;;6.63;56.17;93427.50;5029865;28;20398;-53
2022/04/05 09:05:27;;;;;;;9.50;6.00;;;;;;;6.53;56.89;93429.13;5029046;28;20893;-50
2022/04/05 09:08:21;;;;;;;9.98;6.00;;;;;;;6.45;57.73;93435.03;5029090;28;20064;-54
2022/04/05 09:11:03;;;;;;;10.23;6.03;;;;;;;6.37;57.55;93426.91;5029995;28;20049;-47
2022/04/05 09:13:30;;;;;;;9.57;5.70;;;;;;;6.79;56.44;93435.91;5028922;28;20049;-48
2022/04/05 09:15:59;;;;;;;9.75;5.82;;;;;;;6.83;56.42;93430.44;5029521;28;20045;-49
2022/04/05 09:18:42;;;;;;;11.02;6.13;;;;;;;6.86;56.63;93434.31;5029886;28;20056;-46
2022/04/05 09:21:10;;;;;;;9.48;6.07;;;;;;;6.94;55.68;93424.88;5029522;28;20045;-48
2022/04/05 09:23:43;;;;;;;11.60;5.80;;;;;;;6.86;55.33;93426.13;5029535;28;20045;-49
2022/04/05 09:26:14;;;;;;;10.00;5.60;;;;;;;7.96;53.08;93429.56;5029394;28;20542;-53
2022/04/05 09:28:47;;;;;;;10.73;5.95;;;;;;;7.52;54.06;93431.28;5029320;28;20042;-49
2022/04/05 09:31:20;;;;;;;9.23;5.70;;;;;;;7.51;54.11;93429.75;5029283;28;20045;-51
2022/04/05 09:34:05;;;;;;;10.32;5.85;;;;;;;7.92;53.32;93428.09;5029546;28;20049;-51
2022/04/05 09:36:43;;;;;;;12.90;6.57;;;;;;;8.08;52.91;93430.22;5028717;28;20229;-53
2022/04/05 09:39:18;;;;;;;8.70;5.33;;;;;;;7.31;53.88;93423.34;5029459;28;20098;-49
2022/04/05 09:42:05;;;;;;;9.18;5.70;;;;;;;8.07;53.13;93413.06;5029245;28;20050;-50
2022/04/05 09:44:38;;;;;;;9.38;5.70;;;;;;;8.05;52.52;93422.81;5028397;28;20673;-51
2022/04/05 09:47:08;;;;;;;9.75;5.50;;;;;;;7.95;53.41;93422.56;5029326;28;20067;-50
2022/04/05 09:49:37;;;;;;;10.35;5.70;;;;;;;7.55;54.20;93429.72;5029327;28;20076;-51
2022/04/05 09:52:28;;;;;;;11.50;5.87;;;;;;;7.84;53.42;93432.09;5029282;28;20042;-48
2022/04/05 09:55:07;;;;;;;9.15;5.60;;;;;;;7.76;53.65;93423.97;5028901;28;20064;-51
2022/04/05 09:57:34;;;;;;;11.63;6.47;;;;;;;8.68;52.23;93423.09;5029235;28;20067;-61
2022/04/05 10:00:13;;;;;;;11.63;6.00;;;;;;;8.68;51.94;93425.84;5028661;28;20049;-50
2022/04/05 10:03:02;;;;;;;10.98;6.18;;;;;;;8.69;51.93;93416.47;5029169;28;20402;-47
2022/04/05 10:05:30;;;;;;;12.03;6.20;;;;;;;9.08;50.11;93414.25;5028556;28;20057;-48
2022/04/05 10:07:58;;;;;;;10.93;6.95;;;;;;;9.58;48.90;93410.59;5028510;28;20041;-51
2022/04/05 10:10:25;;;;;;;10.52;6.05;;;;;;;9.64;49.55;93414.38;5029530;28;20045;-49
2022/04/05 10:12:52;;;;;;;8.05;5.50;;;;;;;9.30;49.48;93414.63;5027616;28;20044;-53
2022/04/05 10:15:21;;;;;;;10.48;5.80;;;;;;;9.82;49.01;93422.25;5029258;28;20049;-50
2022/04/05 10:17:49;;;;;;;8.13;5.47;;;;;;;9.51;50.14;93411.47;5029079;28;20045;-53
2022/04/05 10:20:17;;;;;;;10.50;5.90;;;;;;;9.75;49.12;93423.13;5028873;28;20896;-53
2022/04/05 10:22:52;;;;;;;9.57;5.63;;;;;;;10.27;48.74;93416.19;5033019;28;20425;-50
2022/04/05 10:25:21;;;;;;;8.13;5.20;;;;;;;11.10;47.51;93411.53;5032101;28;20357;-46
2022/04/05 10:27:48;;;;;;;11.10;5.28;;;;;;;10.12;48.60;93410.25;5032979;28;20050;-49
2022/04/05 10:30:30;;;;;;;8.73;5.00;;;;;;;10.20;48.51;93416.31;5032086;28;20743;-50
2022/04/05 10:33:05;;;;;;;7.55;4.90;;;;;;;9.86;49.47;93411.19;5032085;28;20045;-47
2022/04/05 10:35:41;;;;;;;7.68;4.40;;;;;;;9.36;51.73;93410.22;5032900;28;20053;-46
2022/04/05 10:38:12;;;;;;;8.45;4.65;;;;;;;9.86;50.80;93406.50;5032319;28;20391;-47
2022/04/05 10:40:39;;;;;;;12.18;5.70;;;;;;;9.74;51.29;93410.66;5032563;28;20046;-48
2022/04/05 10:43:16;;;;;;;12.00;4.90;;;;;;;10.00;51.07;93408.94;5031021;28;20050;-52
2022/04/05 10:45:44;;;;;;;7.68;4.20;;;;;;;9.63;51.34;93401.09;5032552;28;20042;-47
2022/04/05 10:48:25;;;;;;;7.47;4.78;;;;;;;9.48;52.81;93403.34;5032345;28;20099;-50
2022/04/05 10:51:01;;;;;;;8.43;4.70;;;;;;;9.54;52.56;93398.94;5031511;28;20106;-56
2022/04/05 10:53:35;;;;;;;11.20;4.88;;;;;;;9.64;52.59;93408.09;5032678;28;20060;-49
2022/04/05 10:56:07;;;;;;;9.23;5.20;;;;;;;9.95;51.72;93397.69;5032101;28;20041;-52
2022/04/05 10:58:47;;;;;;;8.52;4.80;;;;;;;10.29;50.56;93397.34;5032571;28;20111;-48
2022/04/05 11:01:19;;;;;;;8.63;4.63;;;;;;;10.04;51.58;93399.84;5032165;28;20045;-50
2022/04/05 11:04:16;;;;;;;7.60;4.22;;;;;;;10.10;51.29;93398.94;5031792;28;20118;-56
2022/04/05 11:07:06;;;;;;;7.05;4.40;;;;;;;10.27;51.33;93391.50;5030883;28;20110;-52
2022/04/05 11:09:34;;;;;;;7.30;4.50;;;;;;;10.21;50.61;93384.97;5031247;28;20225;-49
2022/04/05 11:12:08;;;;;;;6.25;4.20;;;;;;;9.94;52.26;93388.69;5031552;28;20494;-50
2022/04/05 11:14:41;;;;;;;8.00;4.78;;;;;;;9.63;52.75;93382.69;5030709;28;20050;-47
2022/04/05 11:17:12;;;;;;;8.98;4.65;;;;;;;9.82;52.78;93389.34;5030227;28;20068;-50
2022/04/05 11:19:41;;;;;;;9.25;5.60;;;;;;;9.64;54.34;93378.75;5031707;28;20052;-55
2022/04/05 11:22:22;;;;;;;10.03;5.20;;;;;;;9.74;54.31;93387.97;5031403;28;20048;-51
2022/04/05 11:24:53;;;;;;;6.72;4.00;;;;;;;9.60;53.94;93380.78;5031425;28;20271;-53
2022/04/05 11:27:38;;;;;;;10.80;4.85;;;;;;;9.99;53.80;93382.69;5030747;28;20071;-47
2022/04/05 11:30:23;;;;;;;9.65;4.70;;;;;;;10.14;53.47;93382.38;5031310;28;20046;-52
2022/04/05 11:33:17;;;;;;;9.50;4.53;;;;;;;9.77;54.22;93376.13;5029258;28;20080;-50
2022/04/05 11:35:49;;;;;;;8.70;4.27;;;;;;;9.84;53.84;93375.22;5031255;28;20498;-48
2022/04/05 11:38:18;;;;;;;8.40;4.20;;;;;;;9.83;54.34;93384.63;5030148;28;21568;-51
2022/04/05 11:40:58;;;;;;;9.48;4.75;;;;;;;9.71;54.13;93389.56;5031064;28;20059;-46
2022/04/05 11:43:34;;;;;;;10.80;5.20;;;;;;;9.43;54.50;93382.69;5031560;28;20051;-48